sensor_id;sensor_type;location;lat;lon;timestamp;pressure;altitude;pressure_sealevel;temperature;humidity
40592;BME280;26301;42.832;23.918;2023-07-08T00:00:20;93402.94;;;18.20;100.00
40592;BME280;26301;42.832;23.918;2023-07-08T00:02:47;93406.59;;;18.19;100.00
40592;BME280;26301;42.832;23.918;2023-07-08T00:05:15;93411.28;;;18.22;100.00
40592;BME280;26301;42.832;23.918;2023-07-08T00:07:43;93419.06;;;18.32;100.00
40592;BME280;26301;42.832;23.918;2023-07-08T00:10:19;93411.72;;;18.29;100.00
40592;BME280;26301;42.832;23.918;2023-07-08T00:12:48;93415.09;;;18.35;100.00
40592;BME280;26301;42.832;23.918;2023-07-08T00:15:16;93396.66;;;18.21;99.96
40592;BME280;26301;42.832;23.918;2023-07-08T00:17:42;93413.31;;;18.30;99.53
40592;BME280;26301;42.832;23.918;2023-07-08T00:22:54;93391.47;;;18.16;98.75
40592;BME280;26301;42.832;23.918;2023-07-08T00:25:20;93407.59;;;18.23;98.38
40592;BME280;26301;42.832;23.918;2023-07-08T00:27:47;93405.28;;;18.21;98.06
40592;BME280;26301;42.832;23.918;2023-07-08T00:30:34;93404.00;;;18.19;97.65
40592;BME280;26301;42.832;23.918;2023-07-08T00:33:00;93383.75;;;18.05;97.18
40592;BME280;26301;42.832;23.918;2023-07-08T00:35:36;93403.25;;;18.13;96.79
40592;BME280;26301;42.832;23.918;2023-07-08T00:38:15;93403.31;;;18.08;95.99
40592;BME280;26301;42.832;23.918;2023-07-08T00:41:04;93392.47;;;17.91;95.58
40592;BME280;26301;42.832;23.918;2023-07-08T00:43:52;93390.19;;;17.84;96.91
40592;BME280;26301;42.832;23.918;2023-07-08T00:51:25;93396.97;;;17.41;99.08
40592;BME280;26301;42.832;23.918;2023-07-08T00:53:51;93394.91;;;17.37;99.04
40592;BME280;26301;42.832;23.918;2023-07-08T00:59:23;93393.91;;;17.33;100.00
40592;BME280;26301;42.832;23.918;2023-07-08T01:01:51;93395.22;;;17.26;100.00
40592;BME280;26301;42.832;23.918;2023-07-08T01:04:25;93408.28;;;17.26;100.00
40592;BME280;26301;42.832;23.918;2023-07-08T01:06:56;93392.16;;;17.19;100.00
40592;BME280;26301;42.832;23.918;2023-07-08T01:09:33;93397.31;;;17.24;100.00
40592;BME280;26301;42.832;23.918;2023-07-08T01:12:04;93396.88;;;17.11;100.00
40592;BME280;26301;42.832;23.918;2023-07-08T01:14:32;93406.75;;;17.14;100.00
40592;BME280;26301;42.832;23.918;2023-07-08T01:17:02;93387.47;;;17.10;99.94
40592;BME280;26301;42.832;23.918;2023-07-08T01:19:28;93401.06;;;17.12;100.00
40592;BME280;26301;42.832;23.918;2023-07-08T01:22:00;93392.69;;;17.10;100.00
40592;BME280;26301;42.832;23.918;2023-07-08T01:24:27;93396.38;;;17.09;100.00
40592;BME280;26301;42.832;23.918;2023-07-08T01:26:55;93389.84;;;17.07;100.00
40592;BME280;26301;42.832;23.918;2023-07-08T01:29:23;93389.06;;;17.06;100.00
40592;BME280;26301;42.832;23.918;2023-07-08T01:31:49;93393.75;;;17.09;100.00
40592;BME280;26301;42.832;23.918;2023-07-08T01:34:18;93379.72;;;17.00;100.00
40592;BME280;26301;42.832;23.918;2023-07-08T01:36:49;93379.13;;;17.13;100.00
40592;BME280;26301;42.832;23.918;2023-07-08T01:39:18;93385.88;;;17.14;100.00
40592;BME280;26301;42.832;23.918;2023-07-08T01:41:45;93390.88;;;17.11;100.00
40592;BME280;26301;42.832;23.918;2023-07-08T01:46:54;93386.94;;;17.13;100.00
40592;BME280;26301;42.832;23.918;2023-07-08T01:49:22;93368.44;;;17.10;100.00
40592;BME280;26301;42.832;23.918;2023-07-08T01:51:49;93387.25;;;17.07;100.00
40592;BME280;26301;42.832;23.918;2023-07-08T01:54:16;93395.06;;;17.07;100.00
40592;BME280;26301;42.832;23.918;2023-07-08T01:56:42;93395.59;;;17.09;100.00
40592;BME280;26301;42.832;23.918;2023-07-08T01:59:08;93395.06;;;17.07;100.00
40592;BME280;26301;42.832;23.918;2023-07-08T02:01:34;93396.66;;;17.03;100.00
40592;BME280;26301;42.832;23.918;2023-07-08T02:04:00;93401.63;;;16.99;100.00
40592;BME280;26301;42.832;23.918;2023-07-08T02:06:27;93402.91;;;17.02;100.00
40592;BME280;26301;42.832;23.918;2023-07-08T02:08:52;93407.63;;;17.00;100.00
40592;BME280;26301;42.832;23.918;2023-07-08T02:11:20;93387.63;;;16.80;100.00
40592;BME280;26301;42.832;23.918;2023-07-08T02:13:47;93386.59;;;16.71;100.00
40592;BME280;26301;42.832;23.918;2023-07-08T02:16:12;93402.22;;;16.81;100.00
40592;BME280;26301;42.832;23.918;2023-07-08T02:18:38;93401.72;;;16.79;100.00
40592;BME280;26301;42.832;23.918;2023-07-08T02:21:04;93393.59;;;16.75;100.00
40592;BME280;26301;42.832;23.918;2023-07-08T02:23:31;93409.22;;;16.90;100.00
40592;BME280;26301;42.832;23.918;2023-07-08T02:25:57;93404.03;;;16.85;100.00
40592;BME280;26301;42.832;23.918;2023-07-08T02:28:23;93394.94;;;16.78;100.00
40592;BME280;26301;42.832;23.918;2023-07-08T02:30:49;93414.19;;;16.92;100.00
40592;BME280;26301;42.832;23.918;2023-07-08T02:33:15;93395.22;;;16.76;100.00
40592;BME280;26301;42.832;23.918;2023-07-08T02:35:43;93412.41;;;16.82;100.00
40592;BME280;26301;42.832;23.918;2023-07-08T02:38:12;93418.38;;;16.88;100.00
40592;BME280;26301;42.832;23.918;2023-07-08T02:40:38;93403.03;;;16.76;100.00
40592;BME280;26301;42.832;23.918;2023-07-08T02:43:04;93407.97;;;16.78;100.00
40592;BME280;26301;42.832;23.918;2023-07-08T02:45:30;93401.72;;;16.68;100.00
40592;BME280;26301;42.832;23.918;2023-07-08T02:47:56;93409.78;;;16.72;100.00
40592;BME280;26301;42.832;23.918;2023-07-08T02:50:22;93415.31;;;16.76;100.00
40592;BME280;26301;42.832;23.918;2023-07-08T02:52:50;93423.91;;;16.76;100.00
40592;BME280;26301;42.832;23.918;2023-07-08T02:55:16;93427.00;;;16.78;100.00
40592;BME280;26301;42.832;23.918;2023-07-08T02:57:43;93410.84;;;16.66;100.00
40592;BME280;26301;42.832;23.918;2023-07-08T03:00:09;93427.00;;;16.73;100.00
40592;BME280;26301;42.832;23.918;2023-07-08T03:02:35;93418.41;;;16.62;100.00
40592;BME280;26301;42.832;23.918;2023-07-08T03:05:02;93407.22;;;16.57;100.00
40592;BME280;26301;42.832;23.918;2023-07-08T03:07:31;93415.28;;;16.60;100.00
40592;BME280;26301;42.832;23.918;2023-07-08T03:09:57;93431.94;;;16.69;100.00
40592;BME280;26301;42.832;23.918;2023-07-08T03:12:23;93413.78;;;16.49;100.00
40592;BME280;26301;42.832;23.918;2023-07-08T03:14:49;93402.03;;;16.46;100.00
40592;BME280;26301;42.832;23.918;2023-07-08T03:17:15;93417.41;;;16.53;100.00
40592;BME280;26301;42.832;23.918;2023-07-08T03:19:42;93420.50;;;16.60;100.00
40592;BME280;26301;42.832;23.918;2023-07-08T03:22:08;93424.94;;;16.65;100.00
40592;BME280;26301;42.832;23.918;2023-07-08T03:24:34;93410.59;;;16.57;100.00
40592;BME280;26301;42.832;23.918;2023-07-08T03:26:59;93436.94;;;16.76;100.00
40592;BME280;26301;42.832;23.918;2023-07-08T03:29:30;93431.44;;;16.78;100.00
40592;BME280;26301;42.832;23.918;2023-07-08T03:31:56;93439.25;;;16.83;100.00
40592;BME280;26301;42.832;23.918;2023-07-08T03:34:24;93436.41;;;16.79;100.00
40592;BME280;26301;42.832;23.918;2023-07-08T03:36:50;93417.63;;;16.77;100.00
40592;BME280;26301;42.832;23.918;2023-07-08T03:39:18;93430.09;;;16.90;100.00
40592;BME280;26301;42.832;23.918;2023-07-08T03:41:44;93412.41;;;16.82;100.00
40592;BME280;26301;42.832;23.918;2023-07-08T03:44:11;93428.28;;;16.86;100.00
40592;BME280;26301;42.832;23.918;2023-07-08T03:46:37;93436.59;;;16.93;100.00
40592;BME280;26301;42.832;23.918;2023-07-08T03:49:05;93423.59;;;16.83;100.00
40592;BME280;26301;42.832;23.918;2023-07-08T03:51:34;93442.34;;;16.90;100.00
40592;BME280;26301;42.832;23.918;2023-07-08T03:54:00;93401.47;;;16.65;100.00
40592;BME280;26301;42.832;23.918;2023-07-08T03:56:26;93428.00;;;16.92;100.00
40592;BME280;26301;42.832;23.918;2023-07-08T03:58:52;93444.13;;;17.05;100.00
40592;BME280;26301;42.832;23.918;2023-07-08T04:01:21;93431.84;;;17.05;100.00
40592;BME280;26301;42.832;23.918;2023-07-08T04:03:51;93447.72;;;17.24;100.00
40592;BME280;26301;42.832;23.918;2023-07-08T04:06:17;93449.25;;;17.30;100.00
40592;BME280;26301;42.832;23.918;2023-07-08T04:08:43;93451.56;;;17.42;100.00
40592;BME280;26301;42.832;23.918;2023-07-08T04:11:12;93446.56;;;17.46;99.86
40592;BME280;26301;42.832;23.918;2023-07-08T04:13:39;93438.50;;;17.42;100.00
40592;BME280;26301;42.832;23.918;2023-07-08T04:16:06;93434.53;;;17.45;100.00
40592;BME280;26301;42.832;23.918;2023-07-08T04:18:32;93462.38;;;17.65;100.00
40592;BME280;26301;42.832;23.918;2023-07-08T04:20:58;93445.38;;;17.67;100.00
40592;BME280;26301;42.832;23.918;2023-07-08T04:23:25;93440.59;;;17.85;97.83
40592;BME280;26301;42.832;23.918;2023-07-08T04:25:53;93446.38;;;17.81;98.77
40592;BME280;26301;42.832;23.918;2023-07-08T04:28:21;93435.94;;;17.81;100.00
40592;BME280;26301;42.832;23.918;2023-07-08T04:30:47;93445.19;;;17.98;100.00
40592;BME280;26301;42.832;23.918;2023-07-08T04:33:15;93441.50;;;18.04;100.00
40592;BME280;26301;42.832;23.918;2023-07-08T04:35:42;93440.81;;;18.22;99.94
40592;BME280;26301;42.832;23.918;2023-07-08T04:38:21;93423.81;;;18.25;95.05
40592;BME280;26301;42.832;23.918;2023-07-08T04:40:52;93426.59;;;18.34;86.23
40592;BME280;26301;42.832;23.918;2023-07-08T04:43:19;93424.72;;;18.68;92.13
40592;BME280;26301;42.832;23.918;2023-07-08T04:45:53;93441.31;;;19.07;88.34
40592;BME280;26301;42.832;23.918;2023-07-08T04:48:20;93432.94;;;19.29;88.86
40592;BME280;26301;42.832;23.918;2023-07-08T04:50:52;93431.41;;;19.47;89.75
40592;BME280;26301;42.832;23.918;2023-07-08T04:53:18;93429.63;;;19.61;89.11
40592;BME280;26301;42.832;23.918;2023-07-08T04:55:48;93430.13;;;19.63;82.77
40592;BME280;26301;42.832;23.918;2023-07-08T04:58:23;93427.09;;;19.56;77.27
40592;BME280;26301;42.832;23.918;2023-07-08T05:00:49;93433.56;;;19.39;75.39
40592;BME280;26301;42.832;23.918;2023-07-08T05:03:15;93446.41;;;19.41;77.72
40592;BME280;26301;42.832;23.918;2023-07-08T05:05:41;93435.16;;;19.40;83.06
40592;BME280;26301;42.832;23.918;2023-07-08T05:08:08;93457.44;;;19.57;84.61
40592;BME280;26301;42.832;23.918;2023-07-08T05:10:34;93450.56;;;19.61;84.57
40592;BME280;26301;42.832;23.918;2023-07-08T05:13:01;93457.63;;;19.66;87.74
40592;BME280;26301;42.832;23.918;2023-07-08T05:15:28;93449.47;;;19.86;86.72
40592;BME280;26301;42.832;23.918;2023-07-08T05:17:54;93424.75;;;19.92;86.42
40592;BME280;26301;42.832;23.918;2023-07-08T05:20:20;93419.84;;;20.04;83.10
40592;BME280;26301;42.832;23.918;2023-07-08T05:22:48;93436.03;;;20.25;84.76
40592;BME280;26301;42.832;23.918;2023-07-08T05:25:14;93420.03;;;20.41;79.13
40592;BME280;26301;42.832;23.918;2023-07-08T05:27:41;93449.72;;;20.69;77.79
40592;BME280;26301;42.832;23.918;2023-07-08T05:30:10;93447.03;;;20.74;77.94
40592;BME280;26301;42.832;23.918;2023-07-08T05:32:38;93437.97;;;20.66;68.26
40592;BME280;26301;42.832;23.918;2023-07-08T05:35:04;93440.22;;;20.73;70.85
40592;BME280;26301;42.832;23.918;2023-07-08T05:37:31;93454.31;;;20.77;65.81
40592;BME280;26301;42.832;23.918;2023-07-08T05:39:57;93447.38;;;20.53;66.62
40592;BME280;26301;42.832;23.918;2023-07-08T05:42:26;93405.72;;;20.19;67.65
40592;BME280;26301;42.832;23.918;2023-07-08T05:44:52;93446.72;;;20.75;69.37
40592;BME280;26301;42.832;23.918;2023-07-08T05:47:21;93443.22;;;20.66;66.92
40592;BME280;26301;42.832;23.918;2023-07-08T05:49:47;93433.31;;;20.77;68.91
40592;BME280;26301;42.832;23.918;2023-07-08T05:52:14;93439.81;;;20.93;63.54
40592;BME280;26301;42.832;23.918;2023-07-08T05:54:41;93437.59;;;20.87;67.37
40592;BME280;26301;42.832;23.918;2023-07-08T05:57:10;93447.25;;;20.91;65.76
40592;BME280;26301;42.832;23.918;2023-07-08T05:59:37;93430.41;;;21.06;67.89
40592;BME280;26301;42.832;23.918;2023-07-08T06:02:06;93440.22;;;21.14;64.47
40592;BME280;26301;42.832;23.918;2023-07-08T06:04:33;93455.28;;;21.22;65.38
40592;BME280;26301;42.832;23.918;2023-07-08T06:06:59;93440.69;;;21.02;64.79
40592;BME280;26301;42.832;23.918;2023-07-08T06:09:25;93454.34;;;21.18;63.55
40592;BME280;26301;42.832;23.918;2023-07-08T06:11:52;93457.41;;;21.20;65.24
40592;BME280;26301;42.832;23.918;2023-07-08T06:14:19;93433.81;;;20.79;62.77
40592;BME280;26301;42.832;23.918;2023-07-08T06:16:45;93457.81;;;20.86;67.40
40592;BME280;26301;42.832;23.918;2023-07-08T06:19:12;93459.19;;;20.84;67.10
40592;BME280;26301;42.832;23.918;2023-07-08T06:21:40;93457.13;;;20.81;66.79
40592;BME280;26301;42.832;23.918;2023-07-08T06:24:06;93446.84;;;20.51;66.38
40592;BME280;26301;42.832;23.918;2023-07-08T06:26:33;93454.66;;;20.57;66.82
40592;BME280;26301;42.832;23.918;2023-07-08T06:28:58;93464.03;;;20.76;68.91
40592;BME280;26301;42.832;23.918;2023-07-08T06:31:24;93458.03;;;20.76;68.92
40592;BME280;26301;42.832;23.918;2023-07-08T06:33:51;93445.56;;;20.68;65.06
40592;BME280;26301;42.832;23.918;2023-07-08T06:36:17;93463.94;;;20.95;65.68
40592;BME280;26301;42.832;23.918;2023-07-08T06:38:45;93467.66;;;20.94;63.37
40592;BME280;26301;42.832;23.918;2023-07-08T06:41:11;93456.56;;;20.70;63.84
40592;BME280;26301;42.832;23.918;2023-07-08T06:43:37;93469.00;;;20.78;66.74
40592;BME280;26301;42.832;23.918;2023-07-08T06:46:03;93455.69;;;20.88;66.21
40592;BME280;26301;42.832;23.918;2023-07-08T06:48:31;93453.44;;;20.68;65.15
40592;BME280;26301;42.832;23.918;2023-07-08T06:50:58;93471.22;;;20.71;65.81
40592;BME280;26301;42.832;23.918;2023-07-08T06:53:23;93482.56;;;20.66;66.49
40592;BME280;26301;42.832;23.918;2023-07-08T06:55:50;93465.16;;;20.57;67.11
40592;BME280;26301;42.832;23.918;2023-07-08T06:58:16;93468.22;;;20.45;64.58
40592;BME280;26301;42.832;23.918;2023-07-08T07:00:43;93474.63;;;20.39;66.53
40592;BME280;26301;42.832;23.918;2023-07-08T07:03:09;93475.75;;;20.32;66.59
40592;BME280;26301;42.832;23.918;2023-07-08T07:05:35;93470.06;;;20.44;67.53
40592;BME280;26301;42.832;23.918;2023-07-08T07:08:02;93457.78;;;20.59;65.27
40592;BME280;26301;42.832;23.918;2023-07-08T07:10:28;93472.78;;;20.72;65.97
40592;BME280;26301;42.832;23.918;2023-07-08T07:12:54;93430.56;;;20.54;63.72
40592;BME280;26301;42.832;23.918;2023-07-08T07:15:21;93470.28;;;21.08;64.96
40592;BME280;26301;42.832;23.918;2023-07-08T07:17:47;93428.28;;;20.94;63.23
40592;BME280;26301;42.832;23.918;2023-07-08T07:20:16;93481.28;;;21.38;65.22
40592;BME280;26301;42.832;23.918;2023-07-08T07:22:42;93483.03;;;21.42;63.02
40592;BME280;26301;42.832;23.918;2023-07-08T07:25:17;93476.50;;;21.54;64.99
40592;BME280;26301;42.832;23.918;2023-07-08T07:27:45;93474.53;;;21.59;63.71
40592;BME280;26301;42.832;23.918;2023-07-08T07:30:11;93494.06;;;21.81;64.58
40592;BME280;26301;42.832;23.918;2023-07-08T07:32:42;93492.56;;;22.02;63.47
40592;BME280;26301;42.832;23.918;2023-07-08T07:35:09;93485.41;;;21.80;62.87
40592;BME280;26301;42.832;23.918;2023-07-08T07:37:38;93506.56;;;22.11;61.96
40592;BME280;26301;42.832;23.918;2023-07-08T07:40:09;93508.94;;;21.99;61.39
40592;BME280;26301;42.832;23.918;2023-07-08T07:42:41;93509.50;;;21.96;61.78
40592;BME280;26301;42.832;23.918;2023-07-08T07:45:07;93503.28;;;21.92;62.08
40592;BME280;26301;42.832;23.918;2023-07-08T07:47:35;93508.28;;;22.16;59.21
40592;BME280;26301;42.832;23.918;2023-07-08T07:50:02;93509.56;;;22.05;61.73
40592;BME280;26301;42.832;23.918;2023-07-08T07:52:28;93515.19;;;22.26;60.39
40592;BME280;26301;42.832;23.918;2023-07-08T07:54:54;93514.13;;;22.13;59.71
40592;BME280;26301;42.832;23.918;2023-07-08T07:57:22;93504.56;;;22.31;62.08
40592;BME280;26301;42.832;23.918;2023-07-08T07:59:48;93512.03;;;22.60;64.78
40592;BME280;26301;42.832;23.918;2023-07-08T08:02:16;93490.09;;;22.42;59.55
40592;BME280;26301;42.832;23.918;2023-07-08T08:04:41;93487.84;;;22.80;61.10
40592;BME280;26301;42.832;23.918;2023-07-08T08:07:07;93507.78;;;23.04;60.52
40592;BME280;26301;42.832;23.918;2023-07-08T08:09:33;93505.69;;;23.23;59.72
40592;BME280;26301;42.832;23.918;2023-07-08T08:12:04;93489.84;;;23.15;58.16
40592;BME280;26301;42.832;23.918;2023-07-08T08:14:30;93509.44;;;23.31;59.33
40592;BME280;26301;42.832;23.918;2023-07-08T08:16:56;93502.47;;;23.35;56.63
40592;BME280;26301;42.832;23.918;2023-07-08T08:19:22;93512.06;;;23.31;55.19
40592;BME280;26301;42.832;23.918;2023-07-08T08:21:48;93510.00;;;23.19;55.95
40592;BME280;26301;42.832;23.918;2023-07-08T08:24:15;93503.06;;;23.23;57.55
40592;BME280;26301;42.832;23.918;2023-07-08T08:26:40;93502.53;;;23.13;56.46
40592;BME280;26301;42.832;23.918;2023-07-08T08:29:07;93494.19;;;23.19;59.02
40592;BME280;26301;42.832;23.918;2023-07-08T08:31:32;93495.16;;;23.23;56.96
40592;BME280;26301;42.832;23.918;2023-07-08T08:33:59;93511.03;;;23.49;57.81
40592;BME280;26301;42.832;23.918;2023-07-08T08:36:25;93505.16;;;23.52;55.38
40592;BME280;26301;42.832;23.918;2023-07-08T08:38:51;93507.13;;;23.87;56.40
40592;BME280;26301;42.832;23.918;2023-07-08T08:41:35;93500.00;;;24.05;59.04
40592;BME280;26301;42.832;23.918;2023-07-08T08:44:03;93513.63;;;24.24;54.65
40592;BME280;26301;42.832;23.918;2023-07-08T08:51:51;93526.41;;;24.48;54.91
40592;BME280;26301;42.832;23.918;2023-07-08T08:54:18;93517.56;;;24.44;55.45
40592;BME280;26301;42.832;23.918;2023-07-08T08:56:57;93520.94;;;24.18;53.25
40592;BME280;26301;42.832;23.918;2023-07-08T08:59:49;93518.00;;;24.55;56.81
40592;BME280;26301;42.832;23.918;2023-07-08T09:04:52;93539.28;;;24.50;54.78
40592;BME280;26301;42.832;23.918;2023-07-08T09:07:20;93529.97;;;24.44;55.70
40592;BME280;26301;42.832;23.918;2023-07-08T09:09:51;93518.91;;;24.33;57.37
40592;BME280;26301;42.832;23.918;2023-07-08T09:12:24;93512.06;;;23.88;55.85
40592;BME280;26301;42.832;23.918;2023-07-08T09:14:51;93525.78;;;24.42;58.62
40592;BME280;26301;42.832;23.918;2023-07-08T09:24:55;93528.72;;;24.50;56.88
40592;BME280;26301;42.832;23.918;2023-07-08T09:27:22;93521.56;;;24.59;58.75
40592;BME280;26301;42.832;23.918;2023-07-08T09:29:48;93517.75;;;25.03;57.58
40592;BME280;26301;42.832;23.918;2023-07-08T09:32:19;93531.28;;;25.49;55.11
40592;BME280;26301;42.832;23.918;2023-07-08T09:39:50;93523.94;;;25.84;53.75
40592;BME280;26301;42.832;23.918;2023-07-08T09:42:16;93516.56;;;25.39;51.02
40592;BME280;26301;42.832;23.918;2023-07-08T09:44:45;93496.56;;;25.12;52.23
40592;BME280;26301;42.832;23.918;2023-07-08T09:47:24;93520.56;;;24.90;53.29
40592;BME280;26301;42.832;23.918;2023-07-08T09:49:52;93511.03;;;25.06;56.43
40592;BME280;26301;42.832;23.918;2023-07-08T09:52:18;93510.72;;;25.16;52.94
40592;BME280;26301;42.832;23.918;2023-07-08T09:54:45;93502.94;;;25.20;55.11
40592;BME280;26301;42.832;23.918;2023-07-08T09:57:27;93494.13;;;24.98;51.94
40592;BME280;26301;42.832;23.918;2023-07-08T09:59:58;93490.03;;;24.62;52.96
40592;BME280;26301;42.832;23.918;2023-07-08T10:07:42;93498.84;;;24.84;59.73
40592;BME280;26301;42.832;23.918;2023-07-08T10:10:15;93487.16;;;24.94;55.58
40592;BME280;26301;42.832;23.918;2023-07-08T10:12:42;93482.44;;;25.17;57.33
40592;BME280;26301;42.832;23.918;2023-07-08T10:15:57;93495.88;;;25.62;53.25
40592;BME280;26301;42.832;23.918;2023-07-08T10:18:28;93489.06;;;25.61;53.07
40592;BME280;26301;42.832;23.918;2023-07-08T10:21:27;93508.97;;;25.59;53.67
40592;BME280;26301;42.832;23.918;2023-07-08T10:26:39;93490.25;;;25.43;52.55
40592;BME280;26301;42.832;23.918;2023-07-08T10:29:36;93492.16;;;25.34;53.78
40592;BME280;26301;42.832;23.918;2023-07-08T10:34:42;93501.41;;;25.10;55.64
40592;BME280;26301;42.832;23.918;2023-07-08T10:39:59;93477.03;;;25.43;55.58
40592;BME280;26301;42.832;23.918;2023-07-08T10:45:23;93473.16;;;25.40;52.24
40592;BME280;26301;42.832;23.918;2023-07-08T10:48:24;93481.06;;;25.70;54.82
40592;BME280;26301;42.832;23.918;2023-07-08T10:51:26;93464.88;;;25.42;54.92
40592;BME280;26301;42.832;23.918;2023-07-08T10:59:35;93465.03;;;25.07;53.94
40592;BME280;26301;42.832;23.918;2023-07-08T11:02:26;93462.69;;;25.05;56.12
40592;BME280;26301;42.832;23.918;2023-07-08T11:07:48;93466.75;;;25.03;58.42
40592;BME280;26301;42.832;23.918;2023-07-08T11:10:29;93462.69;;;25.14;52.26
40592;BME280;26301;42.832;23.918;2023-07-08T11:13:12;93453.22;;;25.13;56.90
40592;BME280;26301;42.832;23.918;2023-07-08T11:21:12;93472.50;;;25.05;54.82
40592;BME280;26301;42.832;23.918;2023-07-08T11:26:52;93477.25;;;25.59;57.44
40592;BME280;26301;42.832;23.918;2023-07-08T11:29:40;93491.41;;;25.54;52.49
40592;BME280;26301;42.832;23.918;2023-07-08T11:32:14;93482.34;;;25.64;54.93
40592;BME280;26301;42.832;23.918;2023-07-08T11:34:43;93479.44;;;25.86;52.16
40592;BME280;26301;42.832;23.918;2023-07-08T11:37:11;93455.31;;;25.88;51.48
40592;BME280;26301;42.832;23.918;2023-07-08T11:39:47;93459.88;;;25.99;52.62
40592;BME280;26301;42.832;23.918;2023-07-08T11:42:23;93471.81;;;26.27;51.67
40592;BME280;26301;42.832;23.918;2023-07-08T11:44:58;93423.75;;;25.53;52.55
40592;BME280;26301;42.832;23.918;2023-07-08T11:50:31;93446.66;;;25.99;53.58
40592;BME280;26301;42.832;23.918;2023-07-08T11:53:13;93447.84;;;26.23;51.05
40592;BME280;26301;42.832;23.918;2023-07-08T11:55:48;93458.31;;;25.98;50.42
40592;BME280;26301;42.832;23.918;2023-07-08T11:58:22;93462.94;;;26.22;50.24
40592;BME280;26301;42.832;23.918;2023-07-08T12:01:03;93451.59;;;26.22;49.82
40592;BME280;26301;42.832;23.918;2023-07-08T12:03:47;93463.09;;;25.84;49.30
40592;BME280;26301;42.832;23.918;2023-07-08T12:11:44;93451.06;;;25.06;52.79
40592;BME280;26301;42.832;23.918;2023-07-08T12:14:14;93438.28;;;25.17;53.00
40592;BME280;26301;42.832;23.918;2023-07-08T12:16:40;93442.50;;;25.09;52.89
40592;BME280;26301;42.832;23.918;2023-07-08T12:19:13;93436.22;;;24.84;54.39
40592;BME280;26301;42.832;23.918;2023-07-08T12:21:42;93436.59;;;25.04;58.10
40592;BME280;26301;42.832;23.918;2023-07-08T12:24:13;93454.78;;;25.14;55.62
40592;BME280;26301;42.832;23.918;2023-07-08T12:26:41;93449.22;;;24.98;53.89
40592;BME280;26301;42.832;23.918;2023-07-08T12:29:11;93442.13;;;24.81;54.85
40592;BME280;26301;42.832;23.918;2023-07-08T12:31:39;93452.78;;;24.94;54.88
40592;BME280;26301;42.832;23.918;2023-07-08T12:34:13;93448.38;;;24.68;53.92
40592;BME280;26301;42.832;23.918;2023-07-08T12:36:41;93445.13;;;24.71;54.70
40592;BME280;26301;42.832;23.918;2023-07-08T12:39:11;93461.19;;;24.96;55.94
40592;BME280;26301;42.832;23.918;2023-07-08T12:41:41;93460.38;;;25.04;52.35
40592;BME280;26301;42.832;23.918;2023-07-08T12:44:21;93472.00;;;25.20;50.06
40592;BME280;26301;42.832;23.918;2023-07-08T12:46:50;93484.56;;;25.23;50.92
40592;BME280;26301;42.832;23.918;2023-07-08T12:49:19;93478.38;;;25.19;51.12
40592;BME280;26301;42.832;23.918;2023-07-08T12:51:47;93475.06;;;24.84;53.30
40592;BME280;26301;42.832;23.918;2023-07-08T12:54:14;93486.03;;;25.03;54.35
40592;BME280;26301;42.832;23.918;2023-07-08T12:56:44;93469.19;;;25.25;53.79
40592;BME280;26301;42.832;23.918;2023-07-08T12:59:18;93457.63;;;25.30;52.86
40592;BME280;26301;42.832;23.918;2023-07-08T13:01:49;93459.50;;;25.59;51.79
40592;BME280;26301;42.832;23.918;2023-07-08T13:04:20;93475.28;;;25.76;49.94
40592;BME280;26301;42.832;23.918;2023-07-08T13:06:48;93474.25;;;25.60;51.06
40592;BME280;26301;42.832;23.918;2023-07-08T13:09:35;93488.47;;;25.85;51.84
40592;BME280;26301;42.832;23.918;2023-07-08T13:12:11;93491.88;;;25.56;53.62
40592;BME280;26301;42.832;23.918;2023-07-08T13:14:39;93507.03;;;25.47;55.59
40592;BME280;26301;42.832;23.918;2023-07-08T13:17:29;93506.72;;;25.01;57.44
40592;BME280;26301;42.832;23.918;2023-07-08T13:19:57;93487.41;;;24.62;58.83
40592;BME280;26301;42.832;23.918;2023-07-08T13:22:26;93484.16;;;24.22;60.89
40592;BME280;26301;42.832;23.918;2023-07-08T13:25:00;93495.03;;;24.12;62.49
40592;BME280;26301;42.832;23.918;2023-07-08T13:27:28;93510.56;;;24.22;62.63
40592;BME280;26301;42.832;23.918;2023-07-08T13:30:07;93511.94;;;24.02;63.54
40592;BME280;26301;42.832;23.918;2023-07-08T13:32:39;93506.97;;;23.83;64.44
40592;BME280;26301;42.832;23.918;2023-07-08T13:35:25;93517.03;;;23.72;63.58
40592;BME280;26301;42.832;23.918;2023-07-08T13:38:00;93516.13;;;23.37;64.79
40592;BME280;26301;42.832;23.918;2023-07-08T13:40:30;93535.34;;;23.29;65.78
40592;BME280;26301;42.832;23.918;2023-07-08T13:42:59;93527.31;;;23.03;67.57
40592;BME280;26301;42.832;23.918;2023-07-08T13:45:28;93542.47;;;22.97;67.63
40592;BME280;26301;42.832;23.918;2023-07-08T13:48:37;93547.69;;;22.66;69.13
40592;BME280;26301;42.832;23.918;2023-07-08T13:51:19;93558.50;;;22.42;72.80
40592;BME280;26301;42.832;23.918;2023-07-08T13:53:52;93575.91;;;22.15;75.21
40592;BME280;26301;42.832;23.918;2023-07-08T13:56:33;93592.31;;;21.85;77.50
40592;BME280;26301;42.832;23.918;2023-07-08T13:59:07;93627.56;;;21.70;82.71
40592;BME280;26301;42.832;23.918;2023-07-08T14:01:37;93614.38;;;21.29;84.52
40592;BME280;26301;42.832;23.918;2023-07-08T14:04:05;93598.69;;;21.23;83.82
40592;BME280;26301;42.832;23.918;2023-07-08T14:06:35;93595.75;;;21.11;85.13
40592;BME280;26301;42.832;23.918;2023-07-08T14:09:17;93600.41;;;21.14;86.05
40592;BME280;26301;42.832;23.918;2023-07-08T14:11:44;93603.72;;;21.06;85.46
40592;BME280;26301;42.832;23.918;2023-07-08T14:14:16;93606.13;;;21.02;85.32
40592;BME280;26301;42.832;23.918;2023-07-08T14:16:53;93614.22;;;21.06;85.20